FW3157 Weather Reports


time (UTC)temp
C
wind
direction
speed
KPH
gust
KPH
rain 1hr
cm
rain 24hr
cm
rain mn
cm
humidity
%
barometer
mb
20220812003844 24 323 4.8 9.7 0.00 0.00 0.00 71 1012.9
20220812003840 24 264 4.8 12.9 0.00 0.00 0.00 72 1012.9
20220812003444 24 297 4.8 9.7 0.00 0.00 0.00 71 1012.9
20220812002343 24 319 4.8 11.3 0.00 0.00 0.00 72 1013.0
20220812002339 24 306 3.2 11.3 0.00 0.00 0.00 70 1012.9
20220812001338 24 238 4.8 9.7 0.00 0.00 0.00 73 1013.0
20220812000943 24 271 6.4 11.3 0.00 0.00 0.00 74 1013.0
20220812000839 24 253 4.8 8.0 0.00 0.00 0.00 73 1013.0
20220812000835 24 296 3.2 9.7 0.00 0.00 0.00 74 1013.0
20220811235839 24 277 6.4 12.9 0.00 0.00 0.00 74 1013.0
20220811235835 24 273 6.4 12.9 0.00 0.00 0.00 73 1013.0
20220811234331 25 274 4.8 11.3 0.00 0.00 0.00 72 1013.0
20220811233831 25 275 4.8 11.3 0.00 0.00 0.00 68 1013.1
20220811233335 25 290 3.2 9.7 0.00 0.00 0.00 66 1013.2
20220811233332 25 264 4.8 9.7 0.00 0.00 0.00 68 1013.1
20220811232940 26 229 3.2 9.7 0.00 0.00 0.00 60 1013.1
20220811232936 25 234 3.2 9.7 0.00 0.00 0.00 63 1013.2
20220811231338 26 201 3.2 8.0 0.00 0.00 0.00 57 1013.0
20220811231334 26 207 3.2 6.4 0.00 0.00 0.00 58 1013.1
20220811230329 26 166 1.6 8.0 0.00 0.00 0.00 56 1013.0
20220811225832 26 113 1.6 6.4 0.00 0.00 0.00 56 1013.0
20220811225334 26 116 3.2 6.4 0.00 0.00 0.00 56 1012.9
20220811225330 26 113 3.2 6.4 0.00 0.00 0.00 56 1012.9
20220811224436 26 98 4.8 12.9 0.00 0.00 0.00 58 1013.1
20220811224330 26 106 3.2 8.0 0.00 0.00 0.00 57 1013.0
20220811223835 26 128 4.8 11.3 0.00 0.00 0.00 57 1013.0
20220811223831 26 113 4.8 9.7 0.00 0.00 0.00 57 1013.0
20220811222330 26 117 4.8 12.9 0.00 0.00 0.00 58 1013.0
20220811222045 25 73 4.8 9.7 0.00 0.00 0.00 59 1013.1
20220811221830 26 68 4.8 12.9 0.00 0.00 0.00 58 1013.1
20220811221330 26 101 3.2 12.9 0.00 0.00 0.00 58 1013.0
20220811220831 26 98 3.2 9.7 0.00 0.00 0.00 58 1013.1
20220811220827 26 105 3.2 9.7 0.00 0.00 0.00 58 1013.0
20220811220437 25 79 4.8 9.7 0.00 0.00 0.00 59 1013.1
20220811220433 26 93 3.2 8.0 0.00 0.00 0.00 59 1013.1
20220811220144 25 79 4.8 11.3 0.00 0.00 0.00 59 1013.1
20220811215040 26 79 6.4 11.3 0.00 0.00 0.00 58 1013.1
20220811213331 26 60 4.8 12.9 0.00 0.00 0.00 58 1013.2
20220811213327 26 99 6.4 12.9 0.00 0.00 0.00 58 1013.2
20220811212555 25 28 6.4 14.5 0.00 0.00 0.00 63 1013.4
20220811212328 26 93 6.4 11.3 0.00 0.00 0.00 57 1013.3
20220811212322 26 91 4.8 11.3 0.00 0.00 0.00 57 1013.3
20220811211930 26 27 6.4 14.5 0.00 0.00 0.00 60 1013.3
20220811211926 26 31 4.8 9.7 0.00 0.00 0.00 57 1013.3
20220811210825 26 337 4.8 9.7 0.00 0.00 0.00 58 1013.3
20220811210821 26 46 4.8 9.7 0.00 0.00 0.00 57 1013.2
20220811204822 25 321 8.0 17.7 0.00 0.00 0.00 63 1013.4
20220811204325 25 352 6.4 16.1 0.00 0.00 0.00 64 1013.3
20220811204321 25 309 9.7 17.7 0.00 0.00 0.00 64 1013.4
20220811203926 25 325 6.4 12.9 0.00 0.00 0.00 63 1013.3
20220811202821 25 298 8.0 16.1 0.00 0.00 0.00 64 1013.3
20220811202321 25 312 11.3 20.9 0.00 0.00 0.00 65 1013.3
20220811201826 26 307 8.0 16.1 0.00 0.00 0.00 62 1013.3
20220811201822 26 306 11.3 20.9 0.00 0.00 0.00 67 1013.3
20220811200926 27 287 1.6 6.4 0.00 0.00 0.00 54 1012.8
20220811200826 27 311 3.2 9.7 0.00 0.00 0.00 55 1012.9
20220811200822 27 257 6.4 12.9 0.00 0.00 0.00 56 1013.0
20220811195320 27 302 0.0 3.2 0.00 0.00 0.00 53 1012.8
20220811194824 27 167 1.6 4.8 0.00 0.00 0.00 53 1012.6
20220811194820 27 153 0.0 3.2 0.00 0.00 0.00 53 1012.7
20220811193823 27 162 1.6 3.2 0.00 0.00 0.00 53 1012.6
20220811193819 27 168 1.6 4.8 0.00 0.00 0.00 53 1012.6
20220811192822 27 175 3.2 6.4 0.00 0.00 0.00 54 1012.4
20220811192818 27 151 3.2 6.4 0.00 0.00 0.00 53 1012.5
20220811191821 27 197 3.2 4.8 0.00 0.00 0.00 54 1012.3
20220811191817 27 108 3.2 6.4 0.00 0.00 0.00 54 1012.4
20220811190823 27 91 1.6 6.4 0.00 0.00 0.00 55 1012.2
20220811190819 27 141 1.6 6.4 0.00 0.00 0.00 55 1012.3
20220811185821 27 137 0.0 6.4 0.00 0.00 0.00 55 1012.3
20220811185817 27 139 1.6 6.4 0.00 0.00 0.00 55 1012.2
20220811184819 27 155 1.6 3.2 0.00 0.00 0.00 52 1012.1
20220811184815 27 147 0.0 3.2 0.00 0.00 0.00 53 1012.1
20220811184427 27 101 3.2 12.9 0.00 0.00 0.00 51 1012.2
20220811184423 27 106 1.6 4.8 0.00 0.00 0.00 51 1012.1
20220811184028 27 110 4.8 12.9 0.00 0.00 0.00 51 1012.1
20220811182315 27 103 4.8 12.9 0.00 0.00 0.00 51 1012.2
20220811181819 27 44 3.2 8.0 0.00 0.00 0.00 51 1012.1
20220811181815 27 124 3.2 11.3 0.00 0.00 0.00 51 1012.1
20220811180816 27 100 3.2 8.0 0.00 0.00 0.00 51 1012.1
20220811180317 27 117 6.4 12.9 0.00 0.00 0.00 51 1012.0
20220811180313 27 136 4.8 12.9 0.00 0.00 0.00 51 1012.1
20220811175422 27 97 12.9 25.7 0.00 0.00 0.00 53 1012.0
20220811175318 27 65 12.9 20.9 0.00 0.00 0.00 52 1012.0
20220811175314 27 94 9.7 17.7 0.00 0.00 0.00 52 1012.0
20220811173817 27 98 14.5 29.0 0.00 0.00 0.00 54 1012.0
20220811173813 26 58 14.5 29.0 0.00 0.00 0.00 54 1012.0
20220811172818 27 98 12.9 27.4 0.00 0.00 0.00 52 1011.9
20220811172814 27 111 14.5 25.7 0.00 0.00 0.00 52 1011.8
20220811171819 27 68 11.3 22.5 0.00 0.00 0.00 53 1011.8
20220811171813 27 67 11.3 27.4 0.00 0.00 0.00 53 1011.8
20220811171421 28 95 11.3 22.5 0.00 0.00 0.00 51 1011.9
20220811170313 28 95 8.0 20.9 0.00 0.00 0.00 49 1011.9
20220811165818 29 65 6.4 14.5 0.00 0.00 0.00 46 1011.8
20220811165310 29 84 4.8 9.7 0.00 0.00 0.00 48 1011.7
20220811164816 29 234 4.8 11.3 0.00 0.00 0.00 49 1011.3
20220811164812 29 96 3.2 11.3 0.00 0.00 0.00 47 1011.5
20220811164419 29 29 4.8 11.3 0.00 0.00 0.00 50 1011.2
20220811163309 29 236 6.4 12.9 0.00 0.00 0.00 49 1011.1
20220811162812 29 191 4.8 14.5 0.00 0.00 0.00 49 1011.0
20220811162307 29 156 4.8 14.5 0.00 0.00 0.00 51 1011.0
20220811161811 29 173 6.4 14.5 0.00 0.00 0.00 50 1011.0
20220811161807 29 121 4.8 14.5 0.00 0.00 0.00 51 1010.9
20220811160810 30 217 6.4 12.9 0.00 0.00 0.00 50 1011.1
20220811160806 29 217 6.4 14.5 0.00 0.00 0.00 49 1011.1
20220811155913 30 160 6.4 16.1 0.00 0.00 0.00 48 1011.0
20220811155810 30 278 6.4 16.1 0.00 0.00 0.00 49 1011.1
20220811155806 30 229 6.4 14.5 0.00 0.00 0.00 49 1011.1
20220811155019 31 150 9.7 22.5 0.00 0.00 0.00 51 1010.7
20220811154911 30 79 6.4 20.9 0.00 0.00 0.00 47 1010.9
20220811154411 31 265 6.4 20.9 0.00 0.00 0.00 46 1010.9
20220811153303 31 207 6.4 20.9 0.00 0.00 0.00 48 1011.0
20220811152801 31 234 6.4 20.9 0.00 0.00 0.00 48 1011.0
20220811152305 31 146 6.4 16.1 0.00 0.00 0.00 48 1010.9
20220811151809 31 108 8.0 19.3 0.00 0.00 0.00 48 1010.8
20220811151801 31 79 8.0 19.3 0.00 0.00 0.00 49 1010.8
20220811150803 31 125 6.4 17.7 0.00 0.00 0.00 48 1010.7
20220811150406 31 154 8.0 22.5 0.00 0.00 0.00 46 1010.8
20220811150305 31 120 8.0 16.1 0.00 0.00 0.00 49 1010.7
20220811150301 31 144 6.4 17.7 0.00 0.00 0.00 46 1010.8
20220811144301 31 195 8.0 19.3 0.00 0.00 0.00 50 1010.7
20220811143904 31 232 8.0 17.7 0.00 0.00 0.00 44 1010.6
20220811143800 31 125 8.0 22.5 0.00 0.00 0.00 50 1010.7
20220811143304 31 237 9.7 17.7 0.00 0.00 0.00 43 1010.6
20220811143300 31 211 9.7 22.5 0.00 0.00 0.00 49 1010.7
20220811141800 32 226 6.4 14.5 0.00 0.00 0.00 44 1010.7
20220811141258 32 240 6.4 12.9 0.00 0.00 0.00 42 1010.6
20220811140904 32 231 6.4 14.5 0.00 0.00 0.00 38 1010.7
20220811140803 32 302 6.4 16.1 0.00 0.00 0.00 40 1010.7
20220811140759 32 212 6.4 16.1 0.00 0.00 0.00 40 1010.6
20220811135259 32 139 4.8 11.3 0.00 0.00 0.00 39 1010.6
20220811134759 32 226 4.8 16.1 0.00 0.00 0.00 38 1010.7
20220811134302 32 289 8.0 16.1 0.00 0.00 0.00 41 1010.7
20220811134258 32 232 6.4 16.1 0.00 0.00 0.00 39 1010.7
20220811133901 32 226 6.4 16.1 0.00 0.00 0.00 41 1010.7
20220811132801 31 188 8.0 19.3 0.00 0.00 0.00 41 1010.7
20220811132757 32 304 8.0 19.3 0.00 0.00 0.00 41 1010.7
20220811132401 31 272 8.0 14.5 0.00 0.00 0.00 42 1010.7
20220811131901 31 122 9.7 19.3 0.00 0.00 0.00 42 1010.9
20220811131404 31 215 9.7 20.9 0.00 0.00 0.00 44 1010.8
20220811130300 31 228 8.0 19.3 0.00 0.00 0.00 40 1010.9
20220811130256 31 243 8.0 20.9 0.00 0.00 0.00 41 1010.8
20220811125905 31 248 12.9 20.9 0.00 0.00 0.00 43 1011.0
20220811125901 31 237 9.7 20.9 0.00 0.00 0.00 42 1010.9
20220811125509 31 287 9.7 19.3 0.00 0.00 0.00 42 1011.1
20220811125505 31 243 12.9 20.9 0.00 0.00 0.00 41 1011.0
20220811123254 32 278 8.0 19.3 0.00 0.00 0.00 41 1011.2
20220811122757 32 210 6.4 19.3 0.00 0.00 0.00 40 1011.3
20220811122753 32 249 8.0 19.3 0.00 0.00 0.00 40 1011.3
20220811121757 31 274 9.7 16.1 0.00 0.00 0.00 40 1011.5
20220811121753 32 278 6.4 14.5 0.00 0.00 0.00 38 1011.4
20220811121002 31 300 11.3 20.9 0.00 0.00 0.00 42 1011.8
20220811120751 31 213 9.7 19.3 0.00 0.00 0.00 39 1011.5
20220811120258 31 278 8.0 20.9 0.00 0.00 0.00 38 1011.6
20220811120252 31 275 9.7 20.9 0.00 0.00 0.00 40 1011.6
20220811115859 31 245 9.7 19.3 0.00 0.00 0.00 40 1011.7
20220811115854 31 233 8.0 16.1 0.00 0.00 0.00 39 1011.6
20220811114959 31 219 11.3 22.5 0.00 0.00 0.00 42 1011.8
20220811113250 31 271 11.3 22.5 0.00 0.00 0.00 40 1011.9
20220811112856 31 252 9.7 20.9 0.00 0.00 0.00 41 1011.9
20220811112755 31 274 8.0 17.7 0.00 0.00 0.00 42 1011.9
20220811112751 31 301 11.3 19.3 0.00 0.00 0.00 41 1011.9
20220811111250 31 271 9.7 20.9 0.00 0.00 0.00 42 1011.9
20220811110751 31 264 9.7 19.3 0.00 0.00 0.00 39 1012.0
20220811110255 31 293 8.0 17.7 0.00 0.00 0.00 40 1012.1
20220811110251 31 283 11.3 19.3 0.00 0.00 0.00 40 1012.1
20220811105254 31 295 4.8 14.5 0.00 0.00 0.00 44 1012.2
20220811105250 31 284 4.8 16.1 0.00 0.00 0.00 41 1012.2
20220811104858 31 245 6.4 14.5 0.00 0.00 0.00 47 1012.5
20220811104854 31 150 4.8 14.5 0.00 0.00 0.00 44 1012.3
20220811103754 31 261 6.4 14.5 0.00 0.00 0.00 47 1012.4
20220811103750 31 147 4.8 12.9 0.00 0.00 0.00 46 1012.4
20220811102254 31 171 4.8 11.3 0.00 0.00 0.00 49 1012.7
20220811102250 31 226 4.8 14.5 0.00 0.00 0.00 47 1012.6
20220811101356 30 258 6.4 14.5 0.00 0.00 0.00 47 1012.7
20220811101254 30 231 6.4 14.5 0.00 0.00 0.00 48 1012.8
20220811101250 30 240 4.8 11.3 0.00 0.00 0.00 47 1012.7
20220811100355 30 119 4.8 12.9 0.00 0.00 0.00 49 1012.8
20220811095256 30 283 4.8 11.3 0.00 0.00 0.00 48 1012.8
20220811095252 30 223 4.8 9.7 0.00 0.00 0.00 49 1012.8
20220811094855 30 272 4.8 11.3 0.00 0.00 0.00 47 1012.9
20220811094355 30 256 4.8 11.3 0.00 0.00 0.00 49 1012.9
20220811093251 29 200 6.4 11.3 0.00 0.00 0.00 50 1012.9
20220811092750 29 216 6.4 11.3 0.00 0.00 0.00 47 1012.9
20220811092401 28 285 11.3 17.7 0.00 0.00 0.00 55 1013.2
20220811092255 29 214 6.4 14.5 0.00 0.00 0.00 51 1013.0
20220811092251 29 276 6.4 14.5 0.00 0.00 0.00 47 1012.9
20220811091255 28 286 6.4 12.9 0.00 0.00 0.00 53 1013.1
20220811091251 29 274 4.8 12.9 0.00 0.00 0.00 51 1013.0
20220811090250 28 315 6.4 14.5 0.00 0.00 0.00 54 1013.1
20220811085754 28 266 8.0 16.1 0.00 0.00 0.00 55 1013.2
20220811085750 28 287 6.4 14.5 0.00 0.00 0.00 55 1013.2
20220811084855 27 266 12.9 17.7 0.00 0.00 0.00 52 1013.2
20220811083750 27 266 11.3 16.1 0.00 0.00 0.00 55 1013.2
20220811083254 27 260 9.7 17.7 0.00 0.00 0.00 55 1013.3
20220811083250 27 268 9.7 16.1 0.00 0.00 0.00 55 1013.2
20220811082859 27 243 8.0 16.1 0.00 0.00 0.00 55 1013.3
20220811082855 27 281 8.0 17.7 0.00 0.00 0.00 55 1013.3
20220811081254 28 246 8.0 16.1 0.00 0.00 0.00 55 1013.4
20220811081250 27 252 9.7 16.1 0.00 0.00 0.00 55 1013.3
20220811080256 28 222 6.4 17.7 0.00 0.00 0.00 53 1013.4
20220811080252 28 262 8.0 17.7 0.00 0.00 0.00 52 1013.4
20220811075854 28 290 6.4 14.5 0.00 0.00 0.00 51 1013.4
20220811074748 28 300 8.0 14.5 0.00 0.00 0.00 48 1013.4
20220811074255 28 295 8.0 17.7 0.00 0.00 0.00 49 1013.3
20220811074251 28 318 6.4 14.5 0.00 0.00 0.00 48 1013.4
20220811073248 28 229 8.0 17.7 0.00 0.00 0.00 48 1013.3
20220811072752 27 322 9.7 17.7 0.00 0.00 0.00 48 1013.4
20220811072748 27 293 9.7 17.7 0.00 0.00 0.00 48 1013.3
20220811071747 27 291 9.7 17.7 0.00 0.00 0.00 49 1013.4
20220811071251 27 330 9.7 20.9 0.00 0.00 0.00 50 1013.3
20220811071247 27 313 9.7 20.9 0.00 0.00 0.00 49 1013.4
20220811070854 27 288 8.0 17.7 0.00 0.00 0.00 49 1013.3
20220811070850 27 297 8.0 16.1 0.00 0.00 0.00 50 1013.3
20220811065243 27 306 6.4 17.7 0.00 0.00 0.00 50 1013.3
20220811064742 27 318 6.4 12.9 0.00 0.00 0.00 49 1013.4
20220811064246 27 301 4.8 11.3 0.00 0.00 0.00 49 1013.5
20220811064242 27 245 6.4 12.9 0.00 0.00 0.00 49 1013.5
20220811063850 27 271 4.8 9.7 0.00 0.00 0.00 49 1013.4
20220811062741 27 302 4.8 9.7 0.00 0.00 0.00 49 1013.4
20220811062245 27 298 4.8 9.7 0.00 0.00 0.00 49 1013.4
20220811062241 27 336 4.8 9.7 0.00 0.00 0.00 49 1013.4
20220811061242 27 319 6.4 11.3 0.00 0.00 0.00 49 1013.4
20220811061238 27 316 4.8 11.3 0.00 0.00 0.00 49 1013.4
20220811060238 27 278 6.4 11.3 0.00 0.00 0.00 49 1013.4
20220811055742 26 359 4.8 9.7 0.00 0.00 0.00 49 1013.2
20220811055738 27 304 4.8 9.7 0.00 0.00 0.00 49 1013.3
20220811054738 26 326 4.8 9.7 0.00 0.00 0.00 49 1013.3
20220811054238 26 314 4.8 9.7 0.00 0.00 0.00 49 1013.3
20220811053737 26 17 6.4 16.1 0.00 0.00 0.00 49 1013.3
20220811053238 26 314 6.4 16.1 0.00 0.00 0.00 49 1013.2
20220811052738 26 41 8.0 14.5 0.00 0.00 0.00 49 1013.2
20220811052243 26 45 8.0 14.5 0.00 0.00 0.00 49 1013.2
20220811052237 26 6 9.7 14.5 0.00 0.00 0.00 49 1013.2
20220811051846 26 354 4.8 11.3 0.00 0.00 0.00 49 1013.2
20220811051340 26 54 4.8 11.3 0.00 0.00 0.00 49 1013.2
20220811050840 26 25 4.8 11.3 0.00 0.00 0.00 49 1013.2
20220811045735 26 30 6.4 11.3 0.00 0.00 0.00 49 1013.2
20220811045235 26 343 8.0 12.9 0.00 0.00 0.00 49 1013.2
20220811044736 26 358 6.4 14.5 0.00 0.00 0.00 49 1013.1
20220811044236 26 36 4.8 14.5 0.00 0.00 0.00 49 1013.1
20220811043740 26 30 3.2 6.4 0.00 0.00 0.00 50 1013.1
20220811043736 26 355 4.8 9.7 0.00 0.00 0.00 50 1013.1
20220811042740 26 330 4.8 9.7 0.00 0.00 0.00 50 1013.0
20220811042736 26 306 4.8 9.7 0.00 0.00 0.00 50 1013.0
20220811042337 26 294 4.8 8.0 0.00 0.00 0.00 50 1013.0
20220811041840 26 314 4.8 8.0 0.00 0.00 0.00 50 1012.9
20220811041238 26 9 4.8 9.7 0.00 0.00 0.00 50 1013.0
20220811041233 26 346 4.8 9.7 0.00 0.00 0.00 50 1012.9
20220811040945 26 40 4.8 8.0 0.00 0.00 0.00 50 1012.9
20220811035839 26 13 4.8 8.0 0.00 0.00 0.00 51 1012.8
20220811035338 26 313 6.4 16.1 0.00 0.00 0.00 51 1012.9
20220811034234 26 39 6.4 16.1 0.00 0.00 0.00 50 1012.9
20220811033737 26 324 4.8 12.9 0.00 0.00 0.00 50 1012.9
20220811033733 26 19 4.8 14.5 0.00 0.00 0.00 50 1012.9
20220811032732 26 350 6.4 12.9 0.00 0.00 0.00 51 1012.9
20220811032236 26 10 6.4 14.5 0.00 0.00 0.00 51 1012.9
20220811032232 26 26 6.4 14.5 0.00 0.00 0.00 51 1012.9
20220811031843 26 307 6.4 14.5 0.00 0.00 0.00 52 1012.9
20220811031835 26 16 6.4 14.5 0.00 0.00 0.00 51 1012.9
20220811030837 26 322 6.4 14.5 0.00 0.00 0.00 52 1012.8
20220811025729 26 321 6.4 14.5 0.00 0.00 0.00 52 1012.7
20220811025230 26 309 6.4 14.5 0.00 0.00 0.00 52 1012.7
20220811024734 26 314 6.4 11.3 0.00 0.00 0.00 52 1012.7
20220811024231 26 321 6.4 11.3 0.00 0.00 0.00 52 1012.6
20220811023729 26 49 6.4 9.7 0.00 0.00 0.00 52 1012.6
20220811023234 26 323 8.0 14.5 0.00 0.00 0.00 52 1012.7
20220811023230 26 345 6.4 14.5 0.00 0.00 0.00 52 1012.6
20220811022229 26 304 6.4 12.9 0.00 0.00 0.00 52 1012.7
20220811021839 26 351 4.8 12.9 0.00 0.00 0.00 51 1012.8
20220811021735 26 359 6.4 12.9 0.00 0.00 0.00 51 1012.8
20220811021731 26 312 6.4 11.3 0.00 0.00 0.00 51 1012.8
20220811020232 26 226 1.6 4.8 0.00 0.00 0.00 49 1012.9
20220811020228 26 288 1.6 8.0 0.00 0.00 0.00 52 1012.8
20220811015228 26 232 1.6 4.8 0.00 0.00 0.00 49 1012.9
20220811014728 26 240 1.6 6.4 0.00 0.00 0.00 49 1012.9
20220811014232 26 209 0.0 3.2 0.00 0.00 0.00 49 1012.8
20220811014228 26 186 1.6 6.4 0.00 0.00 0.00 49 1012.8
20220811013228 26 11 1.6 4.8 0.00 0.00 0.00 48 1012.8
20220811012729 26 29 3.2 8.0 0.00 0.00 0.00 49 1012.8
20220811012725 26 11 1.6 6.4 0.00 0.00 0.00 49 1012.7
20220811011937 26 357 8.0 16.1 0.00 0.00 0.00 48 1012.8
20220811011832 26 53 8.0 16.1 0.00 0.00 0.00 48 1012.8
20220811011730 26 343 8.0 16.1 0.00 0.00 0.00 49 1012.8
20220811011726 26 312 6.4 9.7 0.00 0.00 0.00 49 1012.8
20220811010935 26 45 8.0 12.9 0.00 0.00 0.00 48 1012.8
20220811005227 26 53 9.7 19.3 0.00 0.00 0.00 48 1012.8
20220811005223 26 29 6.4 12.9 0.00 0.00 0.00 48 1012.8
20220811004224 26 30 8.0 19.3 0.00 0.00 0.00 47 1012.9